Time;durP1;ratioP1;P1;durP2;ratioP2;P2;SDS_P1;SDS_P2;PMS_P1;PMS_P2;Temp;Humidity;BMP_temperature;BMP_pressure;BME280_temperature;BME280_humidity;BME280_pressure;Samples;Min_cycle;Max_cycle;Signal;HPM_P1;HPM_P2
2022/09/11 00:00:44;;;;;;;7.57;5.18;;;;;;;19.44;65.06;95320.50;5008224;28;20086;-80
2022/09/11 00:03:09;;;;;;;6.30;4.82;;;;;;;19.61;64.55;95324.16;5026127;28;20022;-80
2022/09/11 00:05:39;;;;;;;8.27;5.10;;;;;;;19.61;64.36;95318.72;5025561;28;20036;-80
2022/09/11 00:08:06;;;;;;;7.68;5.00;;;;;;;19.58;64.63;95316.47;5009724;28;20026;-79
2022/09/11 00:10:37;;;;;;;7.63;5.53;;;;;;;19.61;64.32;95317.88;5024836;28;20037;-79
2022/09/11 00:13:03;;;;;;;8.93;4.90;;;;;;;19.67;64.08;95316.13;5009368;28;20053;-80
2022/09/11 00:15:29;;;;;;;7.07;5.20;;;;;;;19.62;64.23;95320.38;5025335;28;20467;-79
2022/09/11 00:17:55;;;;;;;7.68;5.35;;;;;;;19.61;64.53;95324.16;5025476;28;20049;-80
2022/09/11 00:20:21;;;;;;;6.40;5.03;;;;;;;19.68;63.64;95324.03;5009789;28;20105;-80
2022/09/11 00:22:47;;;;;;;7.13;5.03;;;;;;;19.62;64.07;95319.53;5023836;28;20129;-79
2022/09/11 00:25:13;;;;;;;8.45;5.68;;;;;;;19.55;64.89;95325.13;5025663;28;20033;-82
2022/09/11 00:27:38;;;;;;;7.47;5.20;;;;;;;19.37;64.76;95316.00;5007768;28;20036;-80
2022/09/11 00:30:04;;;;;;;7.10;4.95;;;;;;;19.45;64.90;95320.25;5026564;28;20029;-80
2022/09/11 00:32:32;;;;;;;6.63;5.63;;;;;;;19.39;64.91;95313.84;5007941;28;20056;-80
2022/09/11 00:34:57;;;;;;;7.82;5.53;;;;;;;19.39;64.97;95324.72;5025519;28;20496;-79
2022/09/11 00:37:23;;;;;;;8.60;4.90;;;;;;;19.44;65.07;95320.50;5009019;28;20270;-81
2022/09/11 00:39:49;;;;;;;8.45;5.10;;;;;;;19.47;65.32;95320.03;5007083;28;20040;-79
2022/09/11 00:42:14;;;;;;;5.60;4.78;;;;;;;19.49;65.17;95326.06;5009112;28;20025;-81
2022/09/11 00:44:40;;;;;;;8.52;5.25;;;;;;;19.39;64.85;95324.72;5023431;28;20568;-80
2022/09/11 00:47:08;;;;;;;8.50;5.60;;;;;;;19.40;65.16;95322.84;5026378;28;20488;-81
2022/09/11 00:49:35;;;;;;;6.97;4.75;;;;;;;19.35;65.47;95323.56;5008222;28;20103;-81
2022/09/11 00:52:07;;;;;;;7.78;5.20;;;;;;;19.38;65.23;95323.09;5024259;28;20022;-80
2022/09/11 00:54:36;;;;;;;6.90;4.97;;;;;;;19.32;65.03;95321.31;5024994;28;20104;-80
2022/09/11 00:57:03;;;;;;;8.30;5.55;;;;;;;19.25;65.08;95317.88;5007476;28;20428;-81
2022/09/11 00:59:29;;;;;;;7.03;4.95;;;;;;;19.02;65.95;95323.00;4992398;28;20029;-79
2022/09/11 01:01:55;;;;;;;7.38;5.05;;;;;;;18.95;66.32;95324.19;5006879;28;20528;-79
2022/09/11 01:04:20;;;;;;;9.43;5.93;;;;;;;18.82;66.83;95326.03;5024945;28;20030;-79
2022/09/11 01:06:48;;;;;;;8.43;5.40;;;;;;;18.78;67.02;95330.28;5023589;28;20056;-79
2022/09/11 01:09:13;;;;;;;9.50;5.68;;;;;;;18.73;66.94;95327.44;5024212;28;20030;-79
2022/09/11 01:11:40;;;;;;;6.88;5.05;;;;;;;18.60;67.61;95325.75;5023933;28;20042;-79
2022/09/11 01:14:34;;;;;;;8.55;5.93;;;;;;;18.57;68.11;95323.50;5024925;28;20163;-78
2022/09/11 01:17:22;;;;;;;7.50;5.60;;;;;;;18.56;68.01;95322.66;5024392;28;20111;-79
2022/09/11 01:19:56;;;;;;;10.15;6.05;;;;;;;18.62;67.85;95327.16;5023592;28;20044;-79
2022/09/11 01:22:40;;;;;;;10.35;5.63;;;;;;;18.70;67.78;95331.44;5025333;28;20112;-79
2022/09/11 01:25:27;;;;;;;7.68;5.28;;;;;;;18.66;68.05;95324.81;5025829;28;20037;-79
2022/09/11 01:27:54;;;;;;;8.45;5.53;;;;;;;18.62;67.92;95332.59;5024496;28;20029;-79
2022/09/11 01:30:21;;;;;;;8.52;5.75;;;;;;;18.61;68.03;95327.38;5008439;28;20029;-79
2022/09/11 01:33:10;;;;;;;6.72;5.63;;;;;;;18.56;67.71;95327.25;5023361;28;20084;-79
2022/09/11 01:36:04;;;;;;;9.75;6.32;;;;;;;18.46;68.63;95323.19;5023559;28;20479;-78
2022/09/11 01:38:45;;;;;;;9.02;6.25;;;;;;;18.45;68.72;95320.72;5024687;28;20022;-78
2022/09/11 01:41:24;;;;;;;8.20;5.72;;;;;;;18.52;68.46;95318.75;5008528;28;20082;-79
2022/09/11 01:43:55;;;;;;;7.78;5.82;;;;;;;18.61;68.04;95324.69;5025201;28;20061;-79
2022/09/11 01:46:22;;;;;;;8.98;5.80;;;;;;;18.62;68.38;95308.16;5008759;28;20037;-79
2022/09/11 01:48:49;;;;;;;6.82;5.55;;;;;;;18.69;67.84;95309.94;5026977;28;20384;-79
2022/09/11 01:51:21;;;;;;;8.98;5.50;;;;;;;18.71;67.52;95307.81;5011952;28;20041;-79
2022/09/11 01:53:47;;;;;;;7.78;5.63;;;;;;;18.78;67.21;95308.56;5011522;28;20393;-79
2022/09/11 01:56:20;;;;;;;9.82;5.97;;;;;;;18.74;67.50;95301.91;5012467;28;20879;-79
2022/09/11 01:58:45;;;;;;;;;;;;;;;18.81;67.40;95302.66;5012051;28;20503;-79
2022/09/11 02:01:21;;;;;;;6.72;5.60;;;;;;;18.85;67.48;95303.00;5011367;28;19960;-79
2022/09/11 02:04:04;;;;;;;6.25;5.18;;;;;;;18.90;66.99;95305.84;5028213;28;20029;-79
2022/09/11 02:06:33;;;;;;;10.00;6.32;;;;;;;18.96;66.60;95293.25;5027067;28;20022;-79
2022/09/11 02:09:00;;;;;;;7.10;5.32;;;;;;;18.96;66.67;95290.53;5028205;28;20440;-78
2022/09/11 02:11:27;;;;;;;9.65;6.18;;;;;;;19.02;66.72;95289.59;5010420;28;20147;-79
2022/09/11 02:14:15;;;;;;;6.88;5.40;;;;;;;19.01;66.75;95290.63;5011707;28;20036;-79
2022/09/11 02:16:48;;;;;;;6.82;6.00;;;;;;;19.04;66.72;95290.16;5027963;28;20033;-79
2022/09/11 02:19:16;;;;;;;13.02;6.10;;;;;;;19.08;67.16;95296.81;5026583;28;20428;-79
2022/09/11 02:21:41;;;;;;;6.60;5.82;;;;;;;19.03;67.30;95296.66;5028154;28;20021;-79
2022/09/11 02:24:08;;;;;;;8.85;6.22;;;;;;;19.07;67.12;95295.13;5026294;28;20029;-79
2022/09/11 02:26:35;;;;;;;11.68;5.97;;;;;;;19.07;67.55;95294.31;5027850;28;20029;-79
2022/09/11 02:29:00;;;;;;;7.90;5.97;;;;;;;18.98;67.32;95294.66;5010325;28;20032;-80
2022/09/11 02:31:26;;;;;;;6.85;5.35;;;;;;;18.98;66.77;95291.09;5010663;28;20443;-79
2022/09/11 02:33:52;;;;;;;7.63;5.80;;;;;;;18.79;67.42;95291.19;5027205;28;20229;-79
2022/09/11 02:36:39;;;;;;;9.07;5.90;;;;;;;18.67;68.23;95288.44;5010422;28;20025;-79
2022/09/11 02:39:23;;;;;;;9.32;6.78;;;;;;;18.45;69.41;95288.97;5014063;28;20040;-79
2022/09/11 02:42:11;;;;;;;8.05;6.80;;;;;;;18.32;69.73;95281.84;5026442;28;20021;-80
2022/09/11 02:44:36;;;;;;;8.70;7.03;;;;;;;18.22;69.95;95284.25;5028513;28;20484;-79
2022/09/11 02:47:27;;;;;;;9.82;7.80;;;;;;;18.00;70.73;95284.72;5028696;28;20029;-79
2022/09/11 02:50:00;;;;;;;9.75;7.13;;;;;;;17.89;71.22;95287.13;5026489;28;20030;-80
2022/09/11 02:52:42;;;;;;;9.30;6.88;;;;;;;17.94;71.02;95286.47;5027600;28;20365;-79
2022/09/11 02:55:12;;;;;;;9.35;7.40;;;;;;;17.98;70.84;95286.81;5026116;28;20033;-79
2022/09/11 02:57:46;;;;;;;9.50;7.50;;;;;;;17.95;70.27;95290.00;5025914;28;20030;-79
2022/09/11 03:00:12;;;;;;;8.55;6.78;;;;;;;18.09;70.25;95299.63;5010636;28;20033;-79
2022/09/11 03:02:39;;;;;;;8.82;6.75;;;;;;;18.15;70.03;95290.59;5025659;28;20033;-79
2022/09/11 03:05:06;;;;;;;9.77;6.97;;;;;;;18.18;69.50;95292.06;5028663;28;20021;-79
2022/09/11 03:07:32;;;;;;;11.30;7.63;;;;;;;18.30;69.22;95297.50;5026666;28;20033;-78
2022/09/11 03:09:57;;;;;;;12.63;6.72;;;;;;;18.31;69.26;95301.06;5028032;28;20036;-79
2022/09/11 03:12:22;;;;;;;9.35;6.82;;;;;;;18.24;69.19;95293.84;5027132;28;20018;-79
2022/09/11 03:14:48;;;;;;;11.25;7.25;;;;;;;18.28;69.15;95300.47;5010363;28;20048;-79
2022/09/11 03:17:13;;;;;;;8.15;6.22;;;;;;;18.36;68.55;95303.94;5027309;28;20480;-80
2022/09/11 03:19:39;;;;;;;8.98;6.93;;;;;;;18.38;68.71;95296.38;5027420;28;20443;-79
2022/09/11 03:22:05;;;;;;;12.93;6.70;;;;;;;18.40;68.83;95297.81;5010506;28;20045;-79
2022/09/11 03:24:30;;;;;;;8.45;6.95;;;;;;;18.37;68.82;95302.88;5008476;28;20025;-79
2022/09/11 03:26:55;;;;;;;8.43;7.30;;;;;;;18.32;68.49;95300.84;5028515;28;20025;-79
2022/09/11 03:29:21;;;;;;;16.13;7.30;;;;;;;18.30;69.21;95307.56;5024798;28;20029;-80
2022/09/11 03:31:46;;;;;;;9.02;6.53;;;;;;;18.34;69.01;95314.19;5027905;28;20029;-80
2022/09/11 03:34:12;;;;;;;8.45;6.63;;;;;;;18.26;69.28;95318.03;5025527;28;20026;-80
2022/09/11 03:36:39;;;;;;;8.50;6.97;;;;;;;18.30;69.03;95318.44;5025795;28;20490;-79
2022/09/11 03:39:04;;;;;;;9.45;6.72;;;;;;;18.38;68.28;95315.38;5027242;28;20116;-80
2022/09/11 03:41:30;;;;;;;9.00;7.15;;;;;;;18.28;68.58;95322.19;5024923;28;20542;-79
2022/09/11 03:43:55;;;;;;;8.00;6.53;;;;;;;18.28;68.24;95321.38;5026428;28;20025;-79
2022/09/11 03:46:21;;;;;;;9.48;7.90;;;;;;;18.30;68.05;95334.72;5024600;28;20523;-79
2022/09/11 03:48:46;;;;;;;8.13;6.45;;;;;;;18.32;67.98;95325.28;5010106;28;20037;-78
2022/09/11 03:51:13;;;;;;;8.68;6.55;;;;;;;18.36;67.54;95323.75;5008524;28;20021;-79
2022/09/11 03:53:41;;;;;;;7.90;6.45;;;;;;;18.36;68.20;95325.66;5009650;28;20080;-78
2022/09/11 03:56:07;;;;;;;8.80;6.65;;;;;;;18.35;67.88;95329.41;5025439;28;20103;-79
2022/09/11 03:58:32;;;;;;;7.95;6.05;;;;;;;18.34;67.81;95328.59;5026633;28;20029;-78
2022/09/11 04:00:58;;;;;;;7.93;6.32;;;;;;;18.37;67.13;95325.41;5027265;28;20025;-79
2022/09/11 04:03:23;;;;;;;9.38;6.85;;;;;;;18.36;67.74;95331.09;5025846;28;20036;-79
2022/09/11 04:05:59;;;;;;;9.63;6.47;;;;;;;18.32;67.70;95332.56;5009590;28;20407;-79
2022/09/11 04:08:25;;;;;;;9.32;6.75;;;;;;;18.23;67.92;95338.31;5024136;28;20032;-79
2022/09/11 04:10:57;;;;;;;9.02;6.65;;;;;;;18.18;67.91;95340.06;5008937;28;20065;-79
2022/09/11 04:13:27;;;;;;;7.45;6.15;;;;;;;18.18;68.34;95330.03;5008571;28;20059;-80
2022/09/11 04:15:52;;;;;;;8.98;6.47;;;;;;;18.20;68.03;95336.06;5026909;28;20120;-79
2022/09/11 04:18:18;;;;;;;7.07;6.25;;;;;;;18.07;68.31;95334.31;5025590;28;20129;-79
2022/09/11 04:20:43;;;;;;;9.63;6.22;;;;;;;17.99;68.24;95340.06;5025675;28;20296;-79
2022/09/11 04:23:09;;;;;;;9.75;6.15;;;;;;;18.02;67.70;95329.56;5027131;28;20026;-79
2022/09/11 04:25:34;;;;;;;8.23;6.07;;;;;;;18.01;67.84;95329.78;5007538;28;20076;-80
2022/09/11 04:28:00;;;;;;;9.88;7.45;;;;;;;17.98;67.91;95327.53;5025646;28;20087;-79
2022/09/11 04:30:26;;;;;;;9.15;7.03;;;;;;;17.81;68.41;95328.16;5025824;28;20426;-81
2022/09/11 04:32:51;;;;;;;7.97;6.57;;;;;;;17.88;68.56;95336.19;5025484;28;20026;-79
2022/09/11 04:35:17;;;;;;;8.48;6.85;;;;;;;17.92;68.59;95330.13;5025300;28;20025;-79
2022/09/11 04:37:43;;;;;;;8.77;7.00;;;;;;;17.95;68.20;95334.25;5025604;28;20117;-79
2022/09/11 04:40:08;;;;;;;12.02;7.28;;;;;;;17.78;68.56;95342.97;5027888;28;20033;-78
2022/09/11 04:42:34;;;;;;;8.75;6.97;;;;;;;17.88;68.80;95334.31;5007228;28;20049;-80
2022/09/11 04:44:59;;;;;;;8.45;7.50;;;;;;;17.82;68.83;95337.94;5027049;28;20504;-80
2022/09/11 04:47:25;;;;;;;9.60;7.55;;;;;;;17.81;68.62;95339.00;5023518;28;20034;-79
2022/09/11 04:49:51;;;;;;;9.93;7.70;;;;;;;17.89;68.53;95340.56;5025540;28;20085;-78
2022/09/11 04:52:17;;;;;;;9.80;7.20;;;;;;;17.92;68.47;95342.84;5024394;28;20029;-79
2022/09/11 04:54:42;;;;;;;9.80;7.53;;;;;;;18.03;68.11;95344.81;5025631;28;20033;-79
2022/09/11 04:57:08;;;;;;;10.35;7.15;;;;;;;18.08;67.94;95344.13;5008269;28;20036;-79
2022/09/11 04:59:33;;;;;;;8.13;7.32;;;;;;;18.21;67.70;95337.72;5007320;28;20025;-79
2022/09/11 05:01:58;;;;;;;10.98;8.15;;;;;;;18.27;67.26;95341.41;5025009;28;20025;-79
2022/09/11 05:04:24;;;;;;;9.55;7.57;;;;;;;18.35;67.15;95341.09;5024568;28;20420;-79
2022/09/11 05:06:49;;;;;;;9.02;7.13;;;;;;;18.50;67.01;95338.00;5008740;28;20033;-79
2022/09/11 05:09:16;;;;;;;12.50;8.20;;;;;;;18.62;66.84;95343.44;5024636;28;20025;-80
2022/09/11 05:11:41;;;;;;;8.18;6.80;;;;;;;18.79;66.56;95342.81;5024549;28;20039;-79
2022/09/11 05:14:07;;;;;;;9.60;7.20;;;;;;;18.95;66.19;95340.47;4990968;28;20017;-80
2022/09/11 05:16:33;;;;;;;10.07;7.25;;;;;;;19.03;65.78;95340.16;5007554;28;20120;-80
2022/09/11 05:18:58;;;;;;;11.45;7.28;;;;;;;19.21;65.66;95344.72;5007647;28;20038;-80
2022/09/11 05:21:24;;;;;;;12.35;7.88;;;;;;;19.28;65.09;95339.19;5005549;28;20033;-79
2022/09/11 05:23:52;;;;;;;9.00;7.75;;;;;;;19.33;64.88;95335.75;5024518;28;20100;-79
2022/09/11 05:26:22;;;;;;;9.48;7.55;;;;;;;19.46;64.66;95348.28;5006446;28;20561;-80
2022/09/11 05:28:53;;;;;;;10.10;7.63;;;;;;;19.61;64.26;95350.53;5024473;28;20092;-80
2022/09/11 05:31:18;;;;;;;10.13;7.68;;;;;;;19.58;64.55;95346.41;5023691;28;20021;-80
2022/09/11 05:33:44;;;;;;;9.52;7.78;;;;;;;19.60;64.30;95346.97;5023665;28;20625;-80
2022/09/11 05:36:10;;;;;;;10.13;8.00;;;;;;;19.71;64.08;95347.22;5023957;28;20112;-80
2022/09/11 05:38:35;;;;;;;10.35;7.93;;;;;;;19.83;63.69;95339.06;5024176;28;20083;-79
2022/09/11 05:41:01;;;;;;;9.55;7.93;;;;;;;19.89;63.23;95344.34;5026026;28;20026;-80
2022/09/11 05:43:26;;;;;;;10.18;8.82;;;;;;;19.95;63.09;95339.88;5022441;28;20109;-80
2022/09/11 05:45:55;;;;;;;11.07;8.52;;;;;;;19.93;63.28;95344.72;5024405;28;20033;-80
2022/09/11 05:48:21;;;;;;;8.73;7.65;;;;;;;19.85;63.75;95342.34;5006682;28;20404;-80
2022/09/11 05:50:53;;;;;;;9.07;8.18;;;;;;;19.87;64.12;95346.50;5023843;28;20488;-79
2022/09/11 05:53:19;;;;;;;;;;;;;;;19.78;64.16;95339.75;5007589;28;20022;-80
2022/09/11 05:55:46;;;;;;;10.90;9.10;;;;;;;19.66;64.84;95344.38;5024168;28;19913;-80
2022/09/11 05:58:12;;;;;;;12.40;9.00;;;;;;;19.54;65.62;95342.47;4991179;28;20095;-79
2022/09/11 06:00:37;;;;;;;11.00;9.80;;;;;;;19.35;65.82;95345.31;5006004;28;20030;-81
2022/09/11 06:03:03;;;;;;;12.82;9.90;;;;;;;19.23;66.43;95339.03;5025354;28;20025;-80
2022/09/11 06:05:29;;;;;;;13.30;9.82;;;;;;;19.17;66.30;95343.50;5022502;28;20032;-80
2022/09/11 06:07:56;;;;;;;13.43;10.40;;;;;;;18.93;67.32;95343.44;5024012;28;20048;-80
2022/09/11 06:10:22;;;;;;;20.10;10.43;;;;;;;18.99;67.17;95339.78;5024736;28;20032;-79
2022/09/11 06:12:47;;;;;;;11.82;10.00;;;;;;;19.14;66.28;95338.53;5006900;28;20037;-80
2022/09/11 06:15:13;;;;;;;17.05;10.80;;;;;;;19.25;66.48;95350.50;5007422;28;20033;-80
2022/09/11 06:17:38;;;;;;;12.02;10.27;;;;;;;19.24;66.59;95344.25;5005832;28;20061;-80
2022/09/11 06:20:06;;;;;;;12.60;9.63;;;;;;;19.29;66.07;95356.28;5024137;28;20124;-80
2022/09/11 06:22:32;;;;;;;12.38;9.57;;;;;;;19.53;65.40;95357.16;5006143;28;20113;-80
2022/09/11 06:24:57;;;;;;;14.50;10.43;;;;;;;19.51;65.87;95353.84;5007506;28;20036;-80
2022/09/11 06:27:23;;;;;;;11.68;9.82;;;;;;;19.73;65.21;95345.09;5022181;28;20509;-81
2022/09/11 06:29:49;;;;;;;12.85;10.10;;;;;;;19.74;64.80;95347.56;5024826;28;20024;-79
2022/09/11 06:32:15;;;;;;;11.57;10.30;;;;;;;19.60;64.93;95340.72;5023581;28;20026;-79
2022/09/11 06:34:40;;;;;;;12.23;10.85;;;;;;;19.77;64.17;95347.09;5027488;28;20030;-79
2022/09/11 06:37:05;;;;;;;13.90;11.35;;;;;;;20.01;63.45;95346.22;5028991;28;20021;-79
2022/09/11 06:39:33;;;;;;;14.32;10.40;;;;;;;20.09;62.84;95353.22;5026595;28;20033;-79
2022/09/11 06:41:58;;;;;;;13.02;9.77;;;;;;;19.95;63.14;95353.47;5028920;28;20029;-80
2022/09/11 06:44:25;;;;;;;13.85;10.23;;;;;;;20.00;62.85;95360.91;5027178;28;20029;-80
2022/09/11 06:46:51;;;;;;;11.23;9.98;;;;;;;20.31;62.48;95356.16;5027775;28;20075;-79
2022/09/11 06:49:16;;;;;;;11.63;10.30;;;;;;;20.49;62.50;95359.78;5027437;28;20022;-79
2022/09/11 06:51:41;;;;;;;19.50;9.75;;;;;;;20.61;61.53;95363.28;5027843;28;20018;-80
2022/09/11 06:54:07;;;;;;;12.60;10.00;;;;;;;20.72;61.40;95360.75;5028386;28;20025;-80
2022/09/11 06:56:32;;;;;;;11.15;9.95;;;;;;;20.88;61.15;95359.97;5008749;28;20534;-80
2022/09/11 06:58:58;;;;;;;12.27;10.07;;;;;;;20.92;60.61;95359.50;5027327;28;20021;-80
2022/09/11 07:01:23;;;;;;;14.57;10.40;;;;;;;21.08;60.57;95360.59;5024942;28;20068;-81
2022/09/11 07:03:51;;;;;;;10.93;9.57;;;;;;;21.14;60.23;95364.22;5027006;28;20045;-80
2022/09/11 07:06:18;;;;;;;10.52;9.20;;;;;;;21.20;59.38;95357.81;5009594;28;20057;-79
2022/09/11 07:08:51;;;;;;;11.32;9.18;;;;;;;21.33;59.18;95362.94;5010068;28;20022;-81
2022/09/11 07:11:17;;;;;;;12.80;8.65;;;;;;;21.23;58.99;95357.31;4994337;28;20021;-81
2022/09/11 07:13:43;;;;;;;10.30;7.97;;;;;;;20.99;58.18;95360.16;5008944;28;20029;-80
2022/09/11 07:16:08;;;;;;;14.30;9.02;;;;;;;20.90;58.97;95351.53;5028504;28;20566;-80
2022/09/11 07:18:35;;;;;;;11.60;8.88;;;;;;;21.14;58.31;95350.59;5008324;28;20045;-80
2022/09/11 07:21:04;;;;;;;10.27;8.25;;;;;;;21.24;58.13;95350.78;5026960;28;20096;-80
2022/09/11 07:23:29;;;;;;;9.20;7.32;;;;;;;21.36;57.12;95351.53;5024763;28;20052;-80
2022/09/11 07:25:55;;;;;;;9.45;8.07;;;;;;;21.61;56.79;95350.28;5026748;28;20029;-80
2022/09/11 07:28:20;;;;;;;10.05;8.10;;;;;;;21.64;55.79;95342.66;5009368;28;20028;-80
2022/09/11 07:30:46;;;;;;;12.38;7.82;;;;;;;21.53;56.68;95334.34;5026605;28;20091;-79
2022/09/11 07:33:11;;;;;;;10.25;9.02;;;;;;;21.53;57.21;95330.78;5026699;28;20033;-79
2022/09/11 07:35:37;;;;;;;10.95;8.90;;;;;;;21.73;57.41;95338.47;5024601;28;20068;-79
2022/09/11 07:38:03;;;;;;;14.88;9.57;;;;;;;21.45;57.13;95340.22;5028029;28;20507;-80
2022/09/11 07:40:28;;;;;;;11.10;8.43;;;;;;;21.77;56.83;95331.44;5025664;28;20045;-79
2022/09/11 07:42:54;;;;;;;9.32;8.25;;;;;;;21.69;56.35;95334.56;5010198;28;20022;-79
2022/09/11 07:45:20;;;;;;;10.35;8.68;;;;;;;21.88;55.42;95340.59;5024506;28;20034;-81
2022/09/11 07:47:45;;;;;;;9.93;8.27;;;;;;;21.82;56.49;95334.25;5025836;28;20033;-79
2022/09/11 07:50:11;;;;;;;13.60;8.57;;;;;;;21.67;57.16;95332.09;5027399;28;20014;-80
2022/09/11 07:52:36;;;;;;;10.35;9.27;;;;;;;21.70;56.60;95337.03;5024848;28;20033;-80
2022/09/11 07:55:02;;;;;;;10.13;8.20;;;;;;;21.80;56.53;95333.66;5026206;28;20032;-79
2022/09/11 07:57:29;;;;;;;11.05;8.27;;;;;;;21.77;55.81;95325.13;5024432;28;20478;-81
2022/09/11 07:59:54;;;;;;;12.27;8.73;;;;;;;22.01;55.25;95324.91;5026319;28;20048;-81
2022/09/11 08:02:21;;;;;;;10.77;8.85;;;;;;;22.11;54.59;95314.16;5025673;28;20460;-80
2022/09/11 08:04:46;;;;;;;10.10;7.88;;;;;;;22.23;53.83;95311.28;5027127;28;20560;-79
2022/09/11 08:07:12;;;;;;;10.63;8.18;;;;;;;22.22;53.51;95313.19;5025169;28;20025;-79
2022/09/11 08:09:38;;;;;;;11.50;8.30;;;;;;;22.21;53.79;95319.75;5026080;28;20033;-81
2022/09/11 08:12:04;;;;;;;9.50;8.18;;;;;;;22.08;54.42;95317.38;5027249;28;20040;-80
2022/09/11 08:14:30;;;;;;;10.38;8.57;;;;;;;22.31;54.87;95324.47;5025338;28;20021;-79
2022/09/11 08:16:55;;;;;;;9.63;7.78;;;;;;;22.27;53.52;95322.50;5026115;28;20037;-79
2022/09/11 08:19:21;;;;;;;10.65;8.10;;;;;;;22.27;53.45;95312.44;5007532;28;20472;-79
2022/09/11 08:21:47;;;;;;;10.18;8.27;;;;;;;22.12;53.54;95314.97;5025516;28;20025;-79
2022/09/11 08:24:13;;;;;;;13.90;8.63;;;;;;;22.02;53.96;95305.56;5008072;28;20201;-80
2022/09/11 08:26:39;;;;;;;11.50;7.97;;;;;;;21.93;53.87;95313.38;5008705;28;20018;-80
2022/09/11 08:29:05;;;;;;;10.88;8.45;;;;;;;21.97;52.96;95309.03;5024884;28;20095;-80
2022/09/11 08:31:31;;;;;;;12.20;8.82;;;;;;;22.20;53.80;95300.84;5024244;28;20034;-81
2022/09/11 08:33:57;;;;;;;13.80;8.57;;;;;;;22.14;54.00;95312.78;5008884;28;20055;-80
2022/09/11 08:36:22;;;;;;;11.20;8.38;;;;;;;22.34;52.72;95313.03;5024707;28;20025;-80
2022/09/11 08:38:48;;;;;;;9.65;8.43;;;;;;;22.68;51.15;95305.81;5008830;28;20135;-80
2022/09/11 08:41:26;;;;;;;9.85;7.90;;;;;;;22.48;51.74;95296.25;5007284;28;20036;-80
2022/09/11 08:43:57;;;;;;;9.98;8.85;;;;;;;22.48;52.25;95307.19;5009313;28;20026;-80
2022/09/11 08:46:24;;;;;;;11.80;8.82;;;;;;;21.93;52.87;95296.16;5024629;28;20029;-81
2022/09/11 08:49:01;;;;;;;11.50;8.18;;;;;;;21.94;53.37;95304.09;4991121;28;20392;-80
2022/09/11 08:51:27;;;;;;;9.98;8.98;;;;;;;21.88;53.13;95299.66;5025553;28;20030;-80
2022/09/11 08:53:55;;;;;;;8.85;7.95;;;;;;;22.09;52.66;95299.91;5024156;28;20032;-79
2022/09/11 08:56:22;;;;;;;10.68;8.30;;;;;;;22.32;52.54;95298.00;5008642;28;20408;-81
2022/09/11 08:59:17;;;;;;;9.90;8.20;;;;;;;21.79;53.40;95295.69;5007053;28;20610;-81
2022/09/11 09:01:45;;;;;;;10.20;8.30;;;;;;;21.53;52.77;95293.41;5023859;28;20041;-80
2022/09/11 09:04:26;;;;;;;10.25;8.55;;;;;;;21.60;53.15;95287.78;5026125;28;20510;-81
2022/09/11 09:07:05;;;;;;;11.65;8.75;;;;;;;21.63;53.51;95281.81;5024481;28;20029;-80
2022/09/11 09:09:46;;;;;;;10.18;7.35;;;;;;;21.55;52.46;95280.34;5008925;28;20032;-80
2022/09/11 09:12:19;;;;;;;8.90;7.72;;;;;;;21.77;51.06;95274.13;5024876;28;20102;-80
2022/09/11 09:15:15;;;;;;;10.02;7.18;;;;;;;21.97;49.46;95268.09;5007872;28;20483;-80
2022/09/11 09:17:51;;;;;;;9.70;7.32;;;;;;;22.01;48.70;95271.16;5026212;28;20183;-80
2022/09/11 09:20:21;;;;;;;8.55;7.65;;;;;;;22.08;48.48;95260.03;5006948;28;20112;-80
2022/09/11 09:22:49;;;;;;;9.90;7.22;;;;;;;22.11;48.90;95270.44;5008586;28;20036;-80
2022/09/11 09:25:18;;;;;;;11.70;7.88;;;;;;;22.40;47.47;95259.31;5024951;28;20443;-80
2022/09/11 09:27:48;;;;;;;9.27;7.20;;;;;;;22.19;46.42;95260.97;5007487;28;20025;-79
2022/09/11 09:30:22;;;;;;;8.35;7.20;;;;;;;22.33;46.84;95251.31;5008117;28;20025;-80
2022/09/11 09:32:52;;;;;;;8.75;7.35;;;;;;;22.50;46.26;95250.41;5006747;28;20022;-81
2022/09/11 09:35:40;;;;;;;8.10;6.40;;;;;;;22.53;45.89;95255.34;5024538;28;20112;-81
2022/09/11 09:38:11;;;;;;;8.20;6.13;;;;;;;22.52;45.02;95247.41;5006578;28;20030;-81
2022/09/11 09:40:37;;;;;;;7.57;6.63;;;;;;;22.55;44.34;95245.00;5023558;28;20045;-80
2022/09/11 09:43:15;;;;;;;7.07;6.10;;;;;;;22.49;44.71;95248.72;5008032;28;20048;-81
2022/09/11 09:45:47;;;;;;;7.10;6.40;;;;;;;22.66;44.24;95243.19;5022436;28;20029;-81
2022/09/11 09:48:12;;;;;;;8.80;6.72;;;;;;;22.62;45.03;95246.72;5025704;28;20025;-80
2022/09/11 09:50:39;;;;;;;8.00;6.53;;;;;;;22.47;44.89;95248.19;5022737;28;20049;-80
2022/09/11 09:53:15;;;;;;;9.25;6.78;;;;;;;22.62;45.80;95249.44;5025398;28;20827;-81
2022/09/11 09:55:41;;;;;;;7.13;6.43;;;;;;;22.79;45.45;95244.69;5007657;28;20026;-80
2022/09/11 09:58:06;;;;;;;8.27;6.10;;;;;;;22.82;45.35;95238.69;4990137;28;20381;-81
2022/09/11 10:00:33;;;;;;;8.57;6.25;;;;;;;22.83;44.26;95232.13;5025347;28;20053;-80
2022/09/11 10:02:59;;;;;;;8.18;6.18;;;;;;;22.77;45.10;95232.34;5006344;28;20152;-79
2022/09/11 10:05:29;;;;;;;6.72;6.00;;;;;;;22.65;45.13;95227.06;5007725;28;20029;-80
2022/09/11 10:08:03;;;;;;;8.95;5.95;;;;;;;22.76;45.54;95237.00;5007870;28;20107;-80
2022/09/11 10:10:35;;;;;;;7.43;5.40;;;;;;;23.03;45.02;95227.09;5010976;28;20038;-80
2022/09/11 10:13:04;;;;;;;9.60;7.18;;;;;;;23.06;45.28;95224.66;5012160;28;20052;-80
2022/09/11 10:15:29;;;;;;;9.05;6.70;;;;;;;22.98;45.91;95216.94;5009905;28;20033;-80
2022/09/11 10:18:29;;;;;;;6.55;5.80;;;;;;;23.04;43.41;95218.63;5027853;28;20574;-81
2022/09/11 10:21:10;;;;;;;9.45;5.97;;;;;;;22.75;45.73;95223.59;5027672;28;20113;-80
2022/09/11 10:23:45;;;;;;;7.50;6.13;;;;;;;22.81;45.41;95223.38;5028304;28;20160;-80
2022/09/11 10:26:15;;;;;;;7.72;6.00;;;;;;;22.77;45.39;95221.41;5027696;28;20029;-80
2022/09/11 10:28:40;;;;;;;6.93;6.25;;;;;;;22.94;46.15;95221.28;5027535;28;20029;-80
2022/09/11 10:31:06;;;;;;;8.13;5.60;;;;;;;23.05;43.52;95217.53;4995174;28;20041;-80
2022/09/11 10:33:36;;;;;;;7.45;6.15;;;;;;;22.66;45.21;95215.88;5025449;28;20022;-80
2022/09/11 10:36:04;;;;;;;8.82;7.13;;;;;;;22.59;45.06;95223.41;5027609;28;20449;-80
2022/09/11 10:38:43;;;;;;;10.07;6.30;;;;;;;22.59;45.54;95215.22;5026180;28;20095;-80
2022/09/11 10:41:12;;;;;;;8.65;6.22;;;;;;;22.64;45.85;95214.47;5027742;28;20455;-80
2022/09/11 10:43:44;;;;;;;8.15;6.57;;;;;;;22.55;45.53;95220.41;5028677;28;20021;-80
2022/09/11 10:46:24;;;;;;;7.25;6.50;;;;;;;22.69;45.57;95220.81;4994108;28;20036;-80
2022/09/11 10:48:57;;;;;;;7.43;6.68;;;;;;;22.69;46.17;95209.88;5027629;28;20776;-79
2022/09/11 10:51:24;;;;;;;7.57;6.45;;;;;;;23.00;46.65;95205.75;5026004;28;20029;-80
2022/09/11 10:54:15;;;;;;;10.60;6.55;;;;;;;22.96;45.50;95197.22;5027873;28;20036;-80
2022/09/11 10:56:57;;;;;;;11.07;7.35;;;;;;;22.93;44.56;95189.56;5027253;28;20021;-80
2022/09/11 10:59:26;;;;;;;6.35;5.55;;;;;;;22.78;45.64;95196.53;5025100;28;20135;-80
2022/09/11 11:01:53;;;;;;;9.40;6.55;;;;;;;22.91;45.07;95191.75;5010751;28;20038;-79
2022/09/11 11:04:19;;;;;;;9.05;5.43;;;;;;;22.93;44.86;95195.03;5025756;28;20036;-79
2022/09/11 11:06:54;;;;;;;7.97;5.38;;;;;;;23.02;44.94;95198.09;5009743;28;20033;-80
2022/09/11 11:09:22;;;;;;;8.18;5.50;;;;;;;23.18;44.59;95205.31;5028073;28;20061;-80
2022/09/11 11:11:54;;;;;;;7.57;5.65;;;;;;;23.25;44.32;95202.34;5026274;28;20553;-80
2022/09/11 11:14:58;;;;;;;6.10;5.50;;;;;;;23.58;43.37;95192.19;5027236;28;20033;-79
2022/09/11 11:17:49;;;;;;;7.43;6.05;;;;;;;23.40;43.89;95185.25;5025494;28;20059;-80
2022/09/11 11:20:27;;;;;;;6.07;5.47;;;;;;;23.53;42.61;95169.44;5024253;28;20053;-78
2022/09/11 11:23:18;;;;;;;5.40;4.88;;;;;;;23.44;41.64;95182.81;5027884;28;20480;-79
2022/09/11 11:26:03;;;;;;;7.57;5.28;;;;;;;23.44;41.55;95169.94;4992956;28;20492;-79
2022/09/11 11:28:55;;;;;;;6.28;5.00;;;;;;;23.56;40.84;95167.00;5027320;28;20041;-79
2022/09/11 11:31:39;;;;;;;6.45;5.20;;;;;;;23.55;41.43;95170.81;5027785;28;20037;-79
2022/09/11 11:34:04;;;;;;;5.72;5.20;;;;;;;23.78;41.38;95168.72;5024684;28;20060;-80
2022/09/11 11:36:37;;;;;;;8.57;5.65;;;;;;;23.98;41.03;95150.72;5027875;28;20057;-80
2022/09/11 11:39:20;;;;;;;7.32;5.13;;;;;;;24.01;39.98;95139.22;5009136;28;20022;-79
2022/09/11 11:41:49;;;;;;;6.32;4.80;;;;;;;24.07;39.16;95165.53;5008360;28;20129;-80